Terminal Aerodrome Forecast
Issued by NWS Sioux Falls, SD

Home | Current Version | Previous Version | Graphics & Text | Print | Product List | Glossary On
Versions: 1 2 3 4 5 6 7 8 9 10 11 12 13 14 15 16 17 18
000
FTUS43 KFSD 231052 AAA
TAFFSD
TAF AMD
KFSD 231052Z 2311/2406 27005KT 4SM BR BKN120
     FM231200 30008KT P6SM BKN060
     FM231700 32015G22KT P6SM SCT020 BKN120
     FM232000 32020G30KT P6SM BKN025
     FM240000 32023G35KT P6SM BKN025=

USA.gov is the U.S. government's official web portal to all federal, state and local government web resources and services.